Metar z połowy godziny Komunikat METAR ze strony awiacja.imgw.pl Metar G30 EPPO METAR EPPO 241130Z 33006KT CAVOK 11/M01 Q1024 =